Thunder radar more information blitzortung!


Radar de pluja more information rain snow radar


Visita la nostra xarxa de llocs de meteo:

Template documentation
and downloads

And another site



No particular awareness of the weather is required.    There are no Weather-warnings

Pagina Historial Weather Underground text

Diari Resum Novembre 4, 2017 Unitats:  Imperial    Mètric   Tant
« Previous Dia
SegĂźent Dia »
Diari Setmana Mensual Anual Personalitzada
  Maxima: Minima: Media:
Temperatura: 72 °F 55.2 °F 60.1 °F
Punt de rosada: 59.5 °F 51.6 °F 54.5 °F
Humitat: 91 % 63 % 82 %
Wind Speed: 8.1 mph 0 mph 1.8 mph
RĂ fegues de vent: 8.1 mph - -
Vent:- - SSE
Pression baro: 30 in 29.8 in -
Precipitacions: 0.67 in    
Historical Graphs
 
 
Dades de taula per Novembre 4, 2017
Temps Temperatura Punt de rosada Pression baro Vent Wind Speed RĂ fegues de vent Humitat Rainfall Rate (Hourly)
00:00 57 °F 53.2 °F 30 in NNE 2.3 mph 2.3 mph 87 % 0 in
00:05 57 °F 53.2 °F 30 in Calm     87 % 0 in
00:10 57 °F 53.2 °F 30 in NNE 1.2 mph 1.2 mph 87 % 0 in
00:15 56.8 °F 53.1 °F 30 in Calm     87 % 0 in
00:20 56.5 °F 52.7 °F 30 in WSW 1.2 mph 1.2 mph 87 % 0 in
00:25 56.1 °F 52 °F 30 in WSW 1.2 mph   86 % 0 in
00:30 56.1 °F 52.3 °F 30 in Calm     87 % 0 in
00:35 56.1 °F 52.3 °F 30 in NNE 2.3 mph 2.3 mph 87 % 0 in
00:40 56.1 °F 52.3 °F 29.9 in NNE 1.2 mph   87 % 0 in
00:45 56.1 °F 52.5 °F 29.9 in Calm     88 % 0 in
00:50 56.1 °F 52.5 °F 29.9 in Calm     88 % 0 in
00:55 56.1 °F 52.5 °F 30 in Calm     88 % 0 in
01:00 56.1 °F 52.5 °F 30 in Calm     88 % 0 in
01:05 55.9 °F 52.3 °F 30 in Calm     88 % 0 in
01:10 55.8 °F 52.3 °F 29.9 in NNE 0.9 mph   88 % 0 in
01:15 55.8 °F 52.3 °F 29.9 in Calm     88 % 0 in
01:20 55.8 °F 52.3 °F 29.9 in WNW 1.2 mph 1.2 mph 88 % 0 in
01:25 55.8 °F 52.3 °F 30 in Calm     88 % 0 in
01:30 55.8 °F 52.3 °F 30 in West 1.2 mph 1.2 mph 88 % 0 in
01:35 55.8 °F 52.3 °F 30 in West 1.4 mph 1.4 mph 88 % 0 in
01:40 55.8 °F 52.5 °F 30 in Calm     89 % 0 in
01:45 55.8 °F 52.5 °F 30 in Calm     89 % 0 in
01:50 55.8 °F 52.5 °F 30 in Calm     89 % 0 in
01:55 55.8 °F 52.5 °F 29.9 in Calm     89 % 0 in
02:00 55.8 °F 52.5 °F 29.9 in Calm     89 % 0 in
02:05 55.8 °F 52.5 °F 29.9 in Calm     89 % 0 in
02:10 55.9 °F 52.7 °F 29.9 in North 1.2 mph   89 % 0 in
02:15 55.9 °F 52.7 °F 29.9 in Calm     89 % 0 in
02:20 55.9 °F 53.1 °F 29.9 in Calm     90 % 0 in
02:21 55.9 °F 53.1 °F 29.9 in Calm     90 % 0 in
02:26 55.9 °F 53.1 °F 29.9 in Calm     90 % 0 in
02:31 55.8 °F 52.5 °F 29.9 in Calm     89 % 0 in
02:36 55.8 °F 52.5 °F 29.9 in Calm     89 % 0 in
02:41 55.8 °F 52.9 °F 29.9 in Calm     90 % 0 in
02:46 55.8 °F 52.9 °F 29.9 in Calm     90 % 0 in
02:51 55.8 °F 52.5 °F 29.9 in Calm     89 % 0 in
02:56 55.8 °F 52.9 °F 29.9 in Calm     90 % 0 in
03:01 55.8 °F 52.9 °F 29.9 in Calm     90 % 0 in
03:06 55.9 °F 53.1 °F 29.9 in Calm     90 % 0 in
03:11 55.9 °F 53.1 °F 29.9 in Calm     90 % 0 in
03:16 55.6 °F 52.7 °F 29.9 in Calm     90 % 0 in
03:21 55.8 °F 52.9 °F 29.9 in Calm     90 % 0 in
03:26 55.6 °F 52.7 °F 29.9 in Calm     90 % 0 in
03:31 55.6 °F 52.7 °F 29.9 in Calm     90 % 0 in
03:36 55.6 °F 52.7 °F 29.9 in Calm     90 % 0 in
03:41 55.6 °F 52.7 °F 29.9 in Calm     90 % 0 in
03:46 55.4 °F 52.5 °F 29.9 in SW 2.3 mph 2.3 mph 90 % 0 in
03:51 55.2 °F 52 °F 29.9 in SW 1.4 mph 1.4 mph 89 % 0 in
03:56 55.2 °F 52.3 °F 29.9 in Calm     90 % 0 in
04:01 55.2 °F 52.3 °F 29.9 in Calm     90 % 0 in
04:06 55.4 °F 52.5 °F 29.9 in Calm     90 % 0 in
04:11 55.4 °F 52.5 °F 29.9 in North 1.2 mph   90 % 0 in
04:19 55.6 °F 52.7 °F 29.9 in NNW 1.2 mph   90 % 0 in
04:21 55.6 °F 52.7 °F 29.9 in North 1.2 mph 1.2 mph 90 % 0 in
04:23 55.6 °F 52.7 °F 29.9 in WNW 2.3 mph 2.3 mph 90 % 0 in
04:26 55.6 °F 52.7 °F 29.9 in NNW 3.1 mph 3.1 mph 90 % 0 in
04:27 55.8 °F 52.9 °F 29.9 in ENE 3.5 mph 3.5 mph 90 % 0 in
04:30 55.8 °F 52.9 °F 29.9 in North 3.5 mph 3.5 mph 90 % 0 in
04:35 55.9 °F 53.1 °F 29.9 in NNE 1 mph 4 mph 90 % 0 in
04:40 56.1 °F 53.2 °F 29.9 in NNE 3 mph 6 mph 90 % 0 in
04:45 56.1 °F 53.2 °F 29.9 in NNE 3.5 mph 3.5 mph 90 % 0 in
04:50 56.3 °F 53.1 °F 29.9 in NNE 5.8 mph 5.8 mph 89 % 0 in
04:55 56.1 °F 53.1 °F 29.9 in NNE 3 mph 7 mph 89 % 0 in
05:00 56.1 °F 52.9 °F 29.9 in NE 3 mph 6 mph 89 % 0 in
05:05 56.1 °F 52.9 °F 29.9 in NNE 4.6 mph 4.6 mph 89 % 0 in
05:10 56.1 °F 52.9 °F 29.9 in North 5.8 mph 5.8 mph 89 % 0 in
05:15 55.9 °F 52.7 °F 29.9 in NNE 2 mph 5 mph 89 % 0 in
05:20 55.9 °F 52.7 °F 29.9 in NNE 2 mph 5 mph 89 % 0 in
05:25 55.9 °F 52.7 °F 29.9 in North 3.5 mph 3.5 mph 89 % 0 in
05:30 55.9 °F 52.7 °F 29.9 in North 2.3 mph   89 % 0 in
05:35 56.1 °F 52.9 °F 29.9 in North 1 mph 3 mph 89 % 0 in
05:40 56.1 °F 52.9 °F 29.9 in North 1 mph 2 mph 89 % 0 in
05:45 56.1 °F 52.9 °F 29.9 in Calm   2 mph 89 % 0 in
05:50 56.3 °F 53.1 °F 29.9 in Calm     89 % 0 in
05:55 56.3 °F 53.1 °F 29.9 in Calm     89 % 0 in
06:00 56.3 °F 53.1 °F 29.9 in Calm     89 % 0 in
06:05 56.3 °F 53.1 °F 29.9 in Calm     89 % 0 in
06:10 56.5 °F 53.2 °F 29.9 in NW 2 mph 2 mph 89 % 0 in
06:15 56.5 °F 53.2 °F 29.9 in Calm     89 % 0 in
06:20 56.5 °F 53.2 °F 29.9 in North 1.6 mph   89 % 0 in
06:25 56.5 °F 53.2 °F 29.9 in Calm   2 mph 89 % 0 in
06:30 56.7 °F 53.4 °F 29.9 in NE 2.3 mph 2.3 mph 89 % 0 in
06:35 56.7 °F 53.4 °F 29.9 in NE 2 mph 3 mph 89 % 0 in
06:40 56.7 °F 53.4 °F 29.9 in Calm   3 mph 89 % 0 in
06:45 56.5 °F 53.1 °F 29.9 in NE 1.2 mph   88 % 0 in
06:50 56.5 °F 53.1 °F 29.9 in ENE 2.3 mph   88 % 0 in
06:55 56.5 °F 53.2 °F 29.9 in WSW 1 mph 2 mph 89 % 0 in
07:00 56.5 °F 53.2 °F 29.9 in Calm     89 % 0 in
07:05 56.5 °F 53.2 °F 29.9 in SW 2.3 mph 2.3 mph 89 % 0 in
07:10 56.5 °F 53.2 °F 29.9 in SW 1.2 mph 1.2 mph 89 % 0 in
07:15 56.5 °F 53.2 °F 29.9 in Calm   2 mph 89 % 0 in
07:20 56.5 °F 53.2 °F 29.9 in Calm   1 mph 89 % 0 in
07:25 56.5 °F 53.2 °F 29.9 in NE 0.9 mph 1.4 mph 89 % 0 in
07:30 56.7 °F 53.4 °F 29.9 in WSW 2.3 mph 2.3 mph 89 % 0 in
07:35 56.7 °F 53.4 °F 29.9 in ENE 1.2 mph 1.2 mph 89 % 0 in
07:40 56.7 °F 53.4 °F 29.9 in Calm     89 % 0 in
07:45 56.7 °F 53.4 °F 29.9 in Calm     89 % 0 in
07:50 56.8 °F 53.6 °F 29.9 in NNE 1.2 mph 1.2 mph 89 % 0 in
07:55 56.8 °F 53.6 °F 29.9 in Calm     89 % 0 in
08:00 56.8 °F 53.6 °F 29.9 in Calm   2 mph 89 % 0 in
08:05 56.8 °F 53.6 °F 29.9 in NE 1 mph 2 mph 89 % 0 in
08:10 56.7 °F 53.4 °F 29.9 in ENE 2.3 mph 2.3 mph 89 % 0 in
08:15 56.7 °F 53.4 °F 29.9 in Calm     89 % 0 in
08:20 56.7 °F 53.4 °F 29.9 in SW 2.3 mph   89 % 0 in
08:25 56.7 °F 53.4 °F 29.9 in SW 2 mph 2 mph 89 % 0 in
08:30 56.7 °F 53.4 °F 29.9 in Calm   1 mph 89 % 0 in
08:35 56.7 °F 53.4 °F 29.9 in SW 2.3 mph 2.3 mph 89 % 0 in
08:40 56.7 °F 53.8 °F 29.9 in SW 1.6 mph 1.6 mph 90 % 0 in
08:45 56.5 °F 53.2 °F 29.9 in SW 1 mph 2 mph 89 % 0 in
08:50 56.5 °F 53.2 °F 29.9 in WSW 1 mph 2 mph 89 % 0 in
08:55 56.5 °F 53.6 °F 29.9 in WSW 1.2 mph   90 % 0 in
09:00 56.7 °F 53.8 °F 29.9 in WSW 2.2 mph 2.2 mph 90 % 0 in
09:05 56.7 °F 53.8 °F 29.9 in WSW 1.2 mph 1.2 mph 90 % 0 in
09:10 56.8 °F 54 °F 29.9 in Calm     90 % 0 in
09:15 57.2 °F 54.3 °F 29.9 in WNW 1.2 mph 1.2 mph 90 % 0 in
09:20 57.4 °F 54.9 °F 29.9 in Calm     91 % 0 in
09:25 57.6 °F 55 °F 29.9 in Calm   2 mph 91 % 0 in
09:30 57.9 °F 55.2 °F 29.9 in NNE 3.1 mph 3.1 mph 91 % 0 in
09:35 58.3 °F 55.4 °F 29.9 in NNE 4.9 mph 4.9 mph 90 % 0 in
09:40 59.2 °F 56.1 °F 29.9 in NNE 2.3 mph 2.3 mph 90 % 0 in
09:45 59.7 °F 56.5 °F 29.9 in NE 4.6 mph 4.6 mph 89 % 0 in
09:50 59.5 °F 55.9 °F 29.9 in NE 2 mph 5 mph 88 % 0 in
09:55 59.5 °F 55.8 °F 29.9 in North 2 mph 4 mph 87 % 0 in
10:00 59.5 °F 55.2 °F 29.9 in NE 5.8 mph 5.8 mph 86 % 0 in
10:05 59.9 °F 55.4 °F 29.9 in NNE 4.6 mph 4.6 mph 85 % 0 in
10:10 59.9 °F 55.4 °F 29.9 in NNE 1 mph 6 mph 85 % 0 in
10:15 60.3 °F 55.4 °F 29.9 in NNE 3 mph 6 mph 84 % 0 in
10:20 61.3 °F 56.5 °F 29.9 in NW 2.4 mph 2.4 mph 84 % 0 in
10:25 61.9 °F 56.7 °F 29.9 in NNE 2 mph 7 mph 83 % 0 in
10:30 62.1 °F 56.5 °F 29.9 in NNE 3 mph 7 mph 82 % 0 in
10:35 62.4 °F 56.5 °F 29.9 in NNE 2 mph 8 mph 81 % 0 in
10:40 63.1 °F 56.8 °F 29.9 in NNE 3.5 mph 3.5 mph 80 % 0 in
10:45 63.3 °F 56.7 °F 29.9 in ENE 2.3 mph 2.3 mph 79 % 0 in
10:50 63.3 °F 56.7 °F 29.9 in NE 3.5 mph 3.5 mph 79 % 0 in
10:55 62.8 °F 55.8 °F 29.9 in NE 3 mph 5 mph 78 % 0 in
11:00 63.1 °F 56.1 °F 29.9 in NNE 2.3 mph 2.4 mph 78 % 0 in
11:05 63.3 °F 56.3 °F 29.9 in NE 2 mph 3 mph 78 % 0 in
11:10 63.7 °F 56.7 °F 30 in NNE 2 mph 5 mph 78 % 0 in
11:15 64 °F 56.7 °F 30 in NE 2 mph 5 mph 77 % 0 in
11:20 64.4 °F 57 °F 30 in NNE 1 mph 4 mph 77 % 0 in
11:25 64.9 °F 57.9 °F 29.9 in NNW 1 mph 3 mph 78 % 0 in
11:30 65.7 °F 58.3 °F 29.9 in North 2.3 mph 2.3 mph 77 % 0 in
11:35 65.5 °F 57.7 °F 29.9 in NE 2 mph 3 mph 76 % 0 in
11:40 65.3 °F 57.6 °F 29.9 in Calm   3 mph 76 % 0 in
11:45 65.7 °F 57.9 °F 29.9 in SW 1.2 mph   76 % 0 in
11:50 66 °F 58.3 °F 29.9 in NW 1 mph 3 mph 76 % 0 in
11:55 66.4 °F 58.3 °F 29.9 in NNW 1 mph 2 mph 75 % 0 in
12:00 66.4 °F 58.3 °F 29.9 in NE 1.4 mph 1.4 mph 75 % 0 in
12:05 66 °F 57.9 °F 29.9 in NNE 2.3 mph 2.3 mph 75 % 0 in
12:10 66.2 °F 57.7 °F 29.9 in ENE 2.3 mph 2.3 mph 74 % 0 in
12:15 66.2 °F 57.7 °F 29.9 in NE 2 mph 4 mph 74 % 0 in
12:20 66.4 °F 57.7 °F 29.9 in ENE 2 mph 4 mph 74 % 0 in
12:25 66.6 °F 57.4 °F 29.9 in East 3.5 mph 3.8 mph 72 % 0 in
12:30 67.1 °F 57.7 °F 29.9 in ESE 2.3 mph 2.3 mph 72 % 0 in
12:35 67.6 °F 58.3 °F 29.9 in East 3.5 mph 3.5 mph 72 % 0 in
12:40 67.8 °F 58.5 °F 29.9 in ENE 2 mph 3 mph 72 % 0 in
12:45 68.5 °F 58.6 °F 29.9 in East 1 mph 4 mph 71 % 0 in
12:50 68.5 °F 58.5 °F 29.9 in ESE 2.3 mph 2.3 mph 70 % 0 in
12:55 68.9 °F 58.3 °F 29.8 in ESE 4.9 mph 4.9 mph 69 % 0 in
13:00 68.4 °F 58.3 °F 29.8 in SE 1 mph 5 mph 70 % 0 in
13:05 68.7 °F 58.1 °F 29.8 in SSE 2 mph 4 mph 69 % 0 in
13:10 69.1 °F 58.5 °F 29.9 in NE 3.5 mph 3.5 mph 69 % 0 in
13:15 68.7 °F 58.1 °F 29.9 in NNW 3.5 mph 3.5 mph 69 % 0 in
13:20 69.3 °F 58.6 °F 29.9 in SE 2.9 mph 2.9 mph 69 % 0 in
13:25 70.2 °F 58.6 °F 29.9 in SE 1 mph 3 mph 67 % 0 in
13:30 70.7 °F 59.5 °F 29.9 in SW 2 mph 5 mph 68 % 0 in
13:35 70.7 °F 59.2 °F 29.9 in SW 3.5 mph 3.5 mph 67 % 0 in
13:40 70.9 °F 59 °F 29.8 in SSE 3.5 mph 3.5 mph 66 % 0 in
13:45 70.7 °F 58.5 °F 29.8 in South 2 mph 3 mph 65 % 0 in
13:50 70.7 °F 58.8 °F 29.8 in SW 1 mph 3 mph 66 % 0 in
13:55 70.9 °F 59.4 °F 29.8 in WSW 3 mph 6 mph 67 % 0 in
14:00 71.1 °F 59.2 °F 29.8 in WNW 3.5 mph 3.5 mph 66 % 0 in
14:05 72 °F 59.5 °F 29.8 in SW 2 mph 5 mph 65 % 0 in
14:10 72 °F 59.2 °F 29.8 in WSW 1 mph 3 mph 64 % 0 in
14:15 71.8 °F 58.8 °F 29.8 in WSW 3.3 mph 3.3 mph 64 % 0 in
14:20 71.4 °F 58.6 °F 29.8 in SW 3.5 mph   64 % 0 in
14:25 71.6 °F 58.3 °F 29.8 in SW 1 mph 2 mph 63 % 0 in
14:30 71.2 °F 58.8 °F 29.8 in SW 3.5 mph 3.5 mph 65 % 0 in
14:35 71.1 °F 58.3 °F 29.8 in SW 1 mph 3 mph 64 % 0 in
14:40 70.7 °F 57.9 °F 29.8 in SW 1 mph 3 mph 64 % 0 in
14:45 70.9 °F 58.5 °F 29.8 in SW 3.5 mph 3.5 mph 65 % 0 in
14:50 70.9 °F 58.5 °F 29.8 in SW 2 mph 5 mph 65 % 0 in
14:55 70.9 °F 58.5 °F 29.8 in SW 2 mph 4 mph 65 % 0 in
15:00 70.2 °F 57 °F 29.8 in ENE 2.3 mph   63 % 0 in
15:05 70.5 °F 57.7 °F 29.8 in SSW 2.2 mph 2.2 mph 64 % 0 in
15:10 70.3 °F 57.9 °F 29.8 in WSW 3 mph 5 mph 65 % 0 in
15:15 70.3 °F 57.6 °F 29.8 in SW 1 mph 5 mph 64 % 0 in
15:20 70.5 °F 58.3 °F 29.8 in West 2.9 mph 2.9 mph 65 % 0 in
15:25 70.5 °F 58.3 °F 29.8 in West 4.6 mph 4.6 mph 65 % 0 in
15:30 70.7 °F 58.5 °F 29.8 in SW 2 mph 5 mph 65 % 0 in
15:35 70.9 °F 57.9 °F 29.8 in SW 1 mph 5 mph 64 % 0 in
15:40 71.1 °F 58.3 °F 29.8 in SW 1 mph 3 mph 64 % 0 in
15:45 71.2 °F 58.5 °F 29.8 in South 2.3 mph 2.3 mph 64 % 0 in
15:50 71.2 °F 58.5 °F 29.8 in SW 2 mph 5 mph 64 % 0 in
15:55 71.6 °F 58.8 °F 29.8 in SW 3 mph 5 mph 64 % 0 in
16:00 71.2 °F 58.3 °F 29.8 in SW 3 mph 6 mph 64 % 0 in
16:10 70 °F 57.2 °F 29.8 in WSW 3.5 mph 3.5 mph 64 % 0 in
16:15 69.6 °F 57.4 °F 29.8 in SW 5.8 mph 5.8 mph 65 % 0 in
16:20 69.3 °F 56.7 °F 29.8 in WSW 5.8 mph 5.8 mph 64 % 0 in
16:25 69.1 °F 56.5 °F 29.8 in SW 3.5 mph 3.5 mph 64 % 0 in
16:30 68.7 °F 55.9 °F 29.8 in SW 3.5 mph 3.5 mph 64 % 0 in
16:35 68.5 °F 56.3 °F 29.8 in West 2.3 mph 2.3 mph 65 % 0 in
16:40 68.4 °F 56.1 °F 29.8 in SW 2.3 mph 2.3 mph 65 % 0 in
16:45 68 °F 56.1 °F 29.8 in WNW 3.5 mph 3.5 mph 66 % 0 in
16:50 67.3 °F 55.9 °F 29.8 in ENE 5.8 mph 5.8 mph 67 % 0 in
16:55 66.6 °F 55.2 °F 29.8 in NNE 6.9 mph 6.9 mph 67 % 0 in
17:00 66 °F 55.2 °F 29.8 in WNW 3.5 mph 3.5 mph 68 % 0 in
17:05 65.8 °F 55.4 °F 29.8 in NNE 3.5 mph 3.5 mph 69 % 0 in
17:10 65.7 °F 55.2 °F 29.8 in NNE 3.5 mph 3.5 mph 69 % 0 in
17:15 65.3 °F 54.9 °F 29.8 in NW 2.3 mph 2.3 mph 69 % 0 in
17:20 65.1 °F 54.7 °F 29.8 in NNE 2.6 mph 2.6 mph 69 % 0 in
17:25 64.8 °F 54.7 °F 29.8 in NNW 3.5 mph 3.5 mph 70 % 0 in
17:30 64.6 °F 54.7 °F 29.8 in NW 4.6 mph 4.6 mph 70 % 0 in
17:35 64.2 °F 54.1 °F 29.8 in NNE 8.1 mph 8.1 mph 70 % 0 in
17:40 64 °F 54.1 °F 29.8 in NNE 6.9 mph 6.9 mph 70 % 0 in
17:45 63.9 °F 53.4 °F 29.8 in NNW 3.8 mph 3.8 mph 69 % 0 in
17:50 63.7 °F 53.2 °F 29.8 in WSW 3.5 mph 3.5 mph 69 % 0 in
17:55 63.7 °F 53.2 °F 29.8 in NNE 2.3 mph 2.3 mph 69 % 0 in
18:00 63.5 °F 52.7 °F 29.8 in NNW 2.3 mph 2.3 mph 68 % 0 in
18:05 63.5 °F 53.1 °F 29.8 in NW 2.9 mph 2.9 mph 69 % 0 in
18:10 63.1 °F 53.2 °F 29.8 in WNW 4.6 mph 4.6 mph 70 % 0 in
18:15 62.4 °F 53.2 °F 29.8 in West 3.5 mph 3.5 mph 72 % 0 in
18:20 61.2 °F 52.3 °F 29.8 in WSW 3.5 mph 3.5 mph 73 % 0 in
18:25 59.9 °F 52 °F 29.9 in West 3.5 mph 3.5 mph 75 % 0.17 in
18:30 59.2 °F 51.6 °F 29.9 in WNW 4.6 mph 4.6 mph 76 % 0.33 in
18:35 58.8 °F 52 °F 29.9 in SW 1.2 mph 1.4 mph 78 % 0.33 in
18:40 58.6 °F 52.2 °F 29.9 in WSW 1.2 mph 1.2 mph 79 % 0.33 in
18:45 58.5 °F 52.3 °F 29.9 in Calm     80 % 0.33 in
18:50 58.3 °F 52.2 °F 29.9 in West 1.2 mph   80 % 0.33 in
18:55 58.3 °F 52.5 °F 29.9 in Calm     81 % 0.33 in
19:00 57.9 °F 52.5 °F 29.9 in NE 2.3 mph 2.3 mph 82 % 0.33 in
19:05 57.9 °F 52.9 °F 29.9 in NE 1.4 mph 1.4 mph 83 % 0.33 in
19:10 57.7 °F 52.5 °F 29.9 in NE 4.6 mph 4.6 mph 83 % 0.33 in
19:15 57.6 °F 52.3 °F 29.9 in NNE 2.4 mph 2.4 mph 83 % 0.33 in
19:20 57.2 °F 52.3 °F 29.9 in ENE 3.5 mph 3.5 mph 84 % 0.58 in
19:25 57 °F 52.2 °F 29.8 in NNE 3.5 mph 3.5 mph 84 % 0.41 in
19:30 56.8 °F 52.2 °F 29.8 in Calm     84 % 0.25 in
19:35 56.7 °F 52 °F 29.8 in Calm     84 % 0.25 in
19:40 56.7 °F 52 °F 29.8 in WSW 2.3 mph 2.3 mph 84 % 0.25 in
19:45 56.8 °F 52.2 °F 29.8 in Calm     84 % 0.25 in
19:50 56.8 °F 52.3 °F 29.8 in SW 2.3 mph 2.3 mph 85 % 0.25 in
19:55 56.7 °F 52.2 °F 29.8 in SW 1.2 mph 1.2 mph 85 % 0.25 in
20:00 56.7 °F 52.2 °F 29.8 in SW 2.3 mph 2.3 mph 85 % 0.25 in
20:05 56.5 °F 52 °F 29.8 in SW 2.6 mph 2.6 mph 85 % 0.25 in
20:10 56.5 °F 51.6 °F 29.8 in WSW 4.6 mph 4.6 mph 84 % 0.25 in
20:15 56.5 °F 52 °F 29.8 in West 2.6 mph 2.6 mph 85 % 0.25 in
20:20 56.5 °F 52 °F 29.8 in WSW 3.5 mph 3.5 mph 85 % 0 in
20:25 56.5 °F 52 °F 29.8 in WSW 4.6 mph 4.6 mph 85 % 0 in
20:30 56.5 °F 52 °F 29.8 in West 2.6 mph 2.6 mph 85 % 0.04 in
20:35 56.5 °F 52.7 °F 29.8 in SW 2.3 mph   87 % 0.04 in
20:41 56.7 °F 52.9 °F 29.8 in Calm     87 % 0.08 in
20:46 56.7 °F 53.1 °F 29.8 in Calm     88 % 0.08 in
20:51 56.7 °F 53.1 °F 29.8 in Calm     88 % 0.08 in
20:56 56.7 °F 53.4 °F 29.8 in Calm     89 % 0.08 in
21:01 56.7 °F 53.4 °F 29.8 in Calm     89 % 0.08 in
21:06 56.7 °F 53.4 °F 29.8 in Calm     89 % 0.08 in
21:11 56.7 °F 53.4 °F 29.8 in SSW 1.6 mph 1.6 mph 89 % 0.08 in
21:16 56.7 °F 53.4 °F 29.8 in SW 1.4 mph 1.4 mph 89 % 0.08 in
21:21 56.7 °F 53.4 °F 29.8 in SW 2.3 mph 2.3 mph 89 % 0.08 in
21:26 56.5 °F 53.2 °F 29.8 in SW 2.2 mph 2.2 mph 89 % 0.08 in
21:31 56.5 °F 53.2 °F 29.8 in SW 2.3 mph 2.3 mph 89 % 0.08 in
21:36 56.3 °F 53.1 °F 29.8 in Calm     89 % 0.04 in
21:41 56.3 °F 53.1 °F 29.8 in WSW 2.3 mph 2.3 mph 89 % 0.04 in
21:46 56.5 °F 53.2 °F 29.8 in Calm     89 % 0 in
21:51 56.5 °F 53.6 °F 29.8 in Calm     90 % 0 in
21:56 56.5 °F 53.6 °F 29.8 in SW 1.2 mph   90 % 0 in
22:01 56.3 °F 53.4 °F 29.8 in SW 1.6 mph   90 % 0 in
22:06 56.3 °F 53.1 °F 29.9 in WSW 2.3 mph 2.3 mph 89 % 0 in
22:11 56.3 °F 53.1 °F 29.9 in WSW 2.3 mph 2.3 mph 89 % 0 in
22:16 56.3 °F 53.4 °F 29.9 in WSW 1.2 mph   90 % 0 in
22:21 56.3 °F 53.4 °F 29.9 in SW 1.2 mph   90 % 0 in
22:26 56.1 °F 53.2 °F 29.9 in ESE 1.2 mph 1.2 mph 90 % 0 in
22:27 56.1 °F 53.2 °F 29.9 in ESE 1.2 mph   90 % 0 in
22:32 56.1 °F 53.4 °F 29.9 in Calm     91 % 0 in
22:33 56.1 °F 53.4 °F 29.9 in Calm     91 % 0 in
22:38 56.3 °F 53.8 °F 29.8 in Calm     91 % 0 in
22:43 56.1 °F 53.4 °F 29.8 in Calm     91 % 0 in
22:48 56.1 °F 53.4 °F 29.8 in Calm     91 % 0 in
22:53 56.3 °F 53.8 °F 29.8 in Calm     91 % 0 in
22:55 56.3 °F 53.8 °F 29.8 in SW 2.4 mph   91 % 0 in
23:00 56.3 °F 53.8 °F 29.8 in SW 0.9 mph   91 % 0 in
23:05 56.3 °F 53.8 °F 29.8 in SW 2 mph   91 % 0 in
23:10 56.1 °F 53.4 °F 29.8 in SW 2.4 mph 2.4 mph 91 % 0 in
23:15 56.3 °F 53.8 °F 29.8 in SW 2.3 mph 2.3 mph 91 % 0 in
23:20 56.3 °F 53.8 °F 29.8 in WSW 2.4 mph 2.4 mph 91 % 0 in
23:25 56.3 °F 53.4 °F 29.8 in WSW 2.3 mph 2.3 mph 90 % 0 in
23:30 56.3 °F 53.8 °F 29.8 in Calm     91 % 0 in
23:35 56.3 °F 53.8 °F 29.8 in Calm     91 % 0 in
23:40 56.1 °F 53.4 °F 29.8 in WSW 2.3 mph   91 % 0 in
23:45 56.1 °F 53.4 °F 29.8 in SW 2.3 mph   91 % 0 in
23:50 55.9 °F 53.4 °F 29.8 in Calm     91 % 0 in
23:55 55.9 °F 53.4 °F 29.8 in SW 2.3 mph 2.3 mph 91 % 0 in
Meteo Sesrovires
Elogis d' Weather Underground - 4 mb

Guio original per  Jim McMurry - jmcmurry@mwt.net Adaptat per a la plantilla per  Wim van der Kuil - Leuven-Template.eu

Trobareu la nostra informacio del temps tambe a:

Weather Underground

AWEKAS